createdAt,value
2022-09-12T00:01:32.071Z,93.52
2022-09-12T00:16:34.528Z,91.49
2022-09-12T00:31:36.429Z,90.15
2022-09-12T00:46:55.349Z,91.17
2022-09-12T01:01:56.898Z,90.11
2022-09-12T01:16:58.545Z,88.00
2022-09-12T01:32:18.883Z,89.16
2022-09-12T01:47:39.696Z,89.06
2022-09-12T02:02:47.338Z,87.71
2022-09-12T02:17:50.101Z,87.59
2022-09-12T02:33:02.080Z,88.04
2022-09-12T02:48:19.268Z,88.64
2022-09-12T03:03:23.718Z,89.66
2022-09-12T03:18:46.462Z,92.20
2022-09-12T03:33:48.072Z,91.75
2022-09-12T03:48:50.810Z,90.31
2022-09-12T04:03:52.903Z,90.43
2022-09-12T04:18:54.486Z,85.00
2022-09-12T04:34:00.553Z,81.08
2022-09-12T04:49:02.235Z,72.27
2022-09-12T05:04:03.882Z,70.46
2022-09-12T05:19:05.374Z,69.10
2022-09-12T05:34:07.324Z,67.16
2022-09-12T05:49:10.285Z,63.98
2022-09-12T06:04:12.277Z,61.79
2022-09-12T06:19:15.997Z,65.67
2022-09-12T06:34:17.487Z,58.92
2022-09-12T06:49:19.011Z,54.00
2022-09-12T07:04:20.456Z,63.92
2022-09-12T07:19:22.512Z,56.21
2022-09-12T07:34:23.973Z,59.81
2022-09-12T07:49:25.696Z,57.21
2022-09-12T08:04:27.157Z,57.90
2022-09-12T08:19:28.668Z,55.09
2022-09-12T08:34:30.138Z,48.70
2022-09-12T08:49:37.484Z,56.15
2022-09-12T09:04:48.088Z,52.83
2022-09-12T09:19:51.420Z,51.49
2022-09-12T09:34:52.923Z,50.72
2022-09-12T09:49:54.393Z,49.14
2022-09-12T10:04:57.632Z,52.78
2022-09-12T10:20:19.855Z,51.59
2022-09-12T10:35:25.521Z,48.34
2022-09-12T10:50:29.173Z,47.16
2022-09-12T11:05:37.920Z,46.89
2022-09-12T11:20:58.890Z,48.26
2022-09-12T11:36:02.489Z,52.70
2022-09-12T11:51:07.101Z,55.09
2022-09-12T12:06:20.411Z,52.67
2022-09-12T12:21:31.758Z,50.29
2022-09-12T12:36:38.609Z,48.27
2022-09-12T12:51:44.210Z,50.74
2022-09-12T13:06:54.976Z,51.34
2022-09-12T13:22:03.903Z,53.25
2022-09-12T13:37:27.451Z,57.23
2022-09-12T13:52:30.861Z,57.86
2022-09-12T14:07:33.435Z,55.29
2022-09-12T14:22:35.829Z,55.09
2022-09-12T14:37:37.976Z,58.55
2022-09-12T14:52:40.167Z,59.88
2022-09-12T15:07:42.772Z,60.94
2022-09-12T15:22:44.279Z,62.56
2022-09-12T15:37:45.725Z,61.54
2022-09-12T15:52:47.288Z,61.55
2022-09-12T16:07:50.947Z,60.98
2022-09-12T16:22:52.448Z,61.95
2022-09-12T16:37:53.936Z,62.29
2022-09-12T16:52:55.419Z,63.15
2022-09-12T17:07:56.896Z,61.98
2022-09-12T17:22:58.385Z,60.80
2022-09-12T17:37:59.844Z,60.94
2022-09-12T17:53:01.355Z,61.55
2022-09-12T18:08:02.842Z,62.88
2022-09-12T18:23:04.816Z,63.96
2022-09-12T18:38:06.339Z,64.76
2022-09-12T18:53:07.799Z,66.42
2022-09-12T19:08:09.456Z,65.03
2022-09-12T19:23:11.022Z,65.50
2022-09-12T19:38:13.379Z,65.65
2022-09-12T19:53:15.225Z,65.62
2022-09-12T20:08:16.701Z,66.22
2022-09-12T20:23:18.468Z,65.59
2022-09-12T20:38:19.917Z,67.75
2022-09-12T20:53:21.382Z,68.37
2022-09-12T21:08:22.889Z,69.39
2022-09-12T21:23:25.654Z,70.23
2022-09-12T21:38:27.106Z,71.54
2022-09-12T21:53:28.627Z,72.87
2022-09-12T22:16:08.284Z,74.47
2022-09-12T22:31:10.655Z,76.77
2022-09-12T22:46:12.639Z,77.72
2022-09-12T23:01:14.380Z,79.69
2022-09-12T23:16:18.642Z,80.14
2022-09-12T23:31:20.971Z,80.27
2022-09-12T23:46:22.917Z,81.28
